createdAt,value
2023-03-12T00:00:15.787Z,2.33
2023-03-12T00:02:44.508Z,2.29
2023-03-12T00:05:12.662Z,1.99
2023-03-12T00:07:40.600Z,2.16
2023-03-12T00:10:11.466Z,2.25
2023-03-12T00:12:39.267Z,2.47
2023-03-12T00:15:08.298Z,2.52
2023-03-12T00:17:36.391Z,2.56
2023-03-12T00:20:06.704Z,2.07
2023-03-12T00:22:34.848Z,2.26
2023-03-12T00:25:03.576Z,2.18
2023-03-12T00:27:32.903Z,2.38
2023-03-12T00:30:00.717Z,2.36
2023-03-12T00:32:28.496Z,2.19
2023-03-12T00:34:57.372Z,2.05
2023-03-12T00:37:25.236Z,2.27
2023-03-12T00:39:53.206Z,2.32
2023-03-12T00:42:22.147Z,2.36
2023-03-12T00:44:51.263Z,1.74
2023-03-12T00:47:19.114Z,2.09
2023-03-12T00:49:47.120Z,2.29
2023-03-12T00:52:15.324Z,2.34
2023-03-12T00:54:43.344Z,2.32
2023-03-12T00:57:11.282Z,2.16
2023-03-12T00:59:40.488Z,2.24
2023-03-12T01:02:10.354Z,2.26
2023-03-12T01:04:38.147Z,2.26
2023-03-12T01:07:06.261Z,2.20
2023-03-12T01:09:34.463Z,2.28
2023-03-12T01:12:02.392Z,2.25
2023-03-12T01:14:30.364Z,2.34
2023-03-12T01:16:58.200Z,1.93
2023-03-12T01:19:27.395Z,1.97
2023-03-12T01:21:55.144Z,2.21
2023-03-12T01:24:23.072Z,1.89
2023-03-12T01:26:50.862Z,2.00
2023-03-12T01:29:18.761Z,2.07
2023-03-12T01:31:46.571Z,2.22
2023-03-12T01:34:14.599Z,2.10
2023-03-12T01:36:45.040Z,2.21
2023-03-12T01:39:13.180Z,2.51
2023-03-12T01:41:42.289Z,2.01
2023-03-12T01:44:15.226Z,2.21
2023-03-12T01:46:45.667Z,2.18
2023-03-12T01:49:20.314Z,2.00
2023-03-12T01:51:53.556Z,1.81
2023-03-12T01:54:24.888Z,2.18
2023-03-12T01:56:53.540Z,1.93
2023-03-12T01:59:26.318Z,2.17
2023-03-12T02:01:54.490Z,2.45
2023-03-12T02:04:25.258Z,2.16
2023-03-12T02:07:00.415Z,2.18
2023-03-12T02:09:28.335Z,2.16
2023-03-12T02:11:56.286Z,2.21
2023-03-12T02:14:24.218Z,2.01
2023-03-12T02:16:53.135Z,2.20
2023-03-12T02:19:27.047Z,2.34
2023-03-12T02:21:56.767Z,2.01
2023-03-12T02:24:32.840Z,2.30
2023-03-12T02:27:03.508Z,2.25
2023-03-12T02:29:34.230Z,2.25
2023-03-12T02:32:04.220Z,2.28
2023-03-12T02:34:32.121Z,2.24
2023-03-12T02:36:59.910Z,2.49
2023-03-12T02:39:28.471Z,2.40
2023-03-12T02:41:58.699Z,2.23
2023-03-12T02:44:31.223Z,2.35
2023-03-12T02:47:01.197Z,2.37
2023-03-12T02:49:30.972Z,2.26
2023-03-12T02:52:00.347Z,2.68
2023-03-12T02:54:29.124Z,2.69
2023-03-12T02:56:57.628Z,2.73
2023-03-12T02:59:28.202Z,2.48
2023-03-12T03:02:00.337Z,2.69
2023-03-12T03:04:29.193Z,2.71
2023-03-12T03:06:57.287Z,2.73
2023-03-12T03:09:25.993Z,2.99
2023-03-12T03:11:54.310Z,2.78
2023-03-12T03:14:23.912Z,2.60
2023-03-12T03:16:53.756Z,2.50
2023-03-12T03:19:23.591Z,2.63
2023-03-12T03:21:51.466Z,2.68
2023-03-12T03:24:19.294Z,2.70
2023-03-12T03:26:47.062Z,2.41
2023-03-12T03:29:15.269Z,2.48
2023-03-12T03:31:43.138Z,2.51
2023-03-12T03:34:12.525Z,2.38
2023-03-12T03:36:40.314Z,2.47
2023-03-12T03:39:12.512Z,2.50
2023-03-12T03:41:40.863Z,2.63
2023-03-12T03:44:09.040Z,2.34
2023-03-12T03:46:38.809Z,2.56
2023-03-12T03:49:09.761Z,2.41
2023-03-12T03:51:42.612Z,2.53
2023-03-12T03:54:12.818Z,2.31
2023-03-12T03:56:42.180Z,2.32
2023-03-12T03:59:11.003Z,2.56
2023-03-12T04:01:40.535Z,2.46
2023-03-12T04:04:08.358Z,2.58
2023-03-12T04:06:37.293Z,2.58
2023-03-12T04:09:06.966Z,2.51
2023-03-12T04:11:36.753Z,2.40
2023-03-12T04:14:05.897Z,2.62
2023-03-12T04:16:35.347Z,2.30
2023-03-12T04:19:04.073Z,2.68
2023-03-12T04:21:32.060Z,2.56
2023-03-12T04:24:00.032Z,2.77
2023-03-12T04:26:33.270Z,2.59
2023-03-12T04:29:02.044Z,2.74
2023-03-12T04:31:30.975Z,2.54
2023-03-12T04:33:58.779Z,2.63
2023-03-12T04:36:26.643Z,2.69
2023-03-12T04:38:56.510Z,2.52
2023-03-12T04:41:28.832Z,2.38
2023-03-12T04:44:06.247Z,2.44
2023-03-12T04:46:35.704Z,2.69
2023-03-12T04:49:03.636Z,2.56
2023-03-12T04:51:33.432Z,2.49
2023-03-12T04:54:03.373Z,2.56
2023-03-12T04:56:31.290Z,2.56
2023-03-12T04:58:59.556Z,2.63
2023-03-12T05:01:32.412Z,2.53
2023-03-12T05:04:02.871Z,2.71
2023-03-12T05:06:30.943Z,2.60
2023-03-12T05:08:58.835Z,2.38
2023-03-12T05:11:26.772Z,2.65
2023-03-12T05:13:55.111Z,2.57
2023-03-12T05:16:24.562Z,2.47
2023-03-12T05:18:53.832Z,2.21
2023-03-12T05:21:23.694Z,2.38
2023-03-12T05:23:55.533Z,2.53
2023-03-12T05:26:27.927Z,2.54
2023-03-12T05:29:02.631Z,2.71
2023-03-12T05:31:33.050Z,2.60
2023-03-12T05:34:03.128Z,2.44
2023-03-12T05:36:31.763Z,2.52
2023-03-12T05:39:00.695Z,3.05
2023-03-12T05:41:32.054Z,2.82
2023-03-12T05:44:06.411Z,3.06
2023-03-12T05:46:34.231Z,2.89
2023-03-12T05:49:03.345Z,2.77
2023-03-12T05:51:33.073Z,2.96
2023-03-12T05:54:01.268Z,3.02
2023-03-12T05:56:29.599Z,3.05
2023-03-12T05:58:57.776Z,2.88
2023-03-12T06:01:28.915Z,3.27
2023-03-12T06:03:59.423Z,3.49
2023-03-12T06:06:31.159Z,3.21
2023-03-12T06:08:59.186Z,3.50
2023-03-12T06:11:26.992Z,3.37
2023-03-12T06:13:55.229Z,3.45
2023-03-12T06:16:25.714Z,3.54
2023-03-12T06:18:54.455Z,3.43
2023-03-12T06:21:23.925Z,3.78
2023-03-12T06:23:53.105Z,3.09
2023-03-12T06:26:26.577Z,3.40
2023-03-12T06:28:54.749Z,3.18
2023-03-12T06:31:23.324Z,3.18
2023-03-12T06:33:51.584Z,3.16
2023-03-12T06:36:19.392Z,3.23
2023-03-12T06:38:47.142Z,3.10
2023-03-12T06:41:18.954Z,3.10
2023-03-12T06:43:47.005Z,3.74
2023-03-12T06:46:16.959Z,3.77
2023-03-12T06:48:46.452Z,4.22
2023-03-12T06:51:16.213Z,3.69
2023-03-12T06:53:44.791Z,3.56
2023-03-12T06:56:13.175Z,3.73
2023-03-12T06:58:42.601Z,3.56
2023-03-12T07:01:10.571Z,3.57
2023-03-12T07:03:38.495Z,3.85
2023-03-12T07:06:13.536Z,4.08
2023-03-12T07:08:41.334Z,3.86
2023-03-12T07:11:09.105Z,4.10
2023-03-12T07:13:36.892Z,3.59
2023-03-12T07:16:07.357Z,3.32
2023-03-12T07:18:35.620Z,3.73
2023-03-12T07:21:03.709Z,3.40
2023-03-12T07:23:31.524Z,3.54
2023-03-12T07:25:59.308Z,3.32
2023-03-12T07:28:27.097Z,3.33
2023-03-12T07:31:00.526Z,3.36
2023-03-12T07:33:29.842Z,3.66
2023-03-12T07:35:57.747Z,3.83
2023-03-12T07:38:25.783Z,3.65
2023-03-12T07:40:54.787Z,3.39
2023-03-12T07:43:23.139Z,3.60
2023-03-12T07:45:54.165Z,3.73
2023-03-12T07:48:22.087Z,3.80
2023-03-12T07:50:51.295Z,3.88
2023-03-12T07:53:19.142Z,4.07
2023-03-12T07:55:48.525Z,3.94
2023-03-12T07:58:17.188Z,3.82
2023-03-12T08:00:45.802Z,3.68
2023-03-12T08:03:13.995Z,3.22
2023-03-12T08:05:42.029Z,3.52
2023-03-12T08:08:11.449Z,3.64
2023-03-12T08:10:39.275Z,3.71
2023-03-12T08:13:07.108Z,3.48
2023-03-12T08:15:34.909Z,3.41
2023-03-12T08:18:02.721Z,3.34
2023-03-12T08:20:30.531Z,3.76
2023-03-12T08:22:58.324Z,3.70
2023-03-12T08:25:27.643Z,3.95
2023-03-12T08:27:55.438Z,3.71
2023-03-12T08:30:23.502Z,4.00
2023-03-12T08:32:51.343Z,3.98
2023-03-12T08:35:19.244Z,4.41
2023-03-12T08:37:47.025Z,4.53
2023-03-12T08:40:15.102Z,4.53
2023-03-12T08:42:46.074Z,4.79
2023-03-12T08:45:15.757Z,4.81
2023-03-12T08:47:44.334Z,4.64
2023-03-12T08:50:13.977Z,4.56
2023-03-12T08:52:41.935Z,4.85
2023-03-12T08:55:10.445Z,4.74
2023-03-12T08:57:38.504Z,5.24
2023-03-12T09:00:13.951Z,5.02
2023-03-12T09:02:44.086Z,4.42
2023-03-12T09:05:12.203Z,4.84
2023-03-12T09:07:40.228Z,5.17
2023-03-12T09:10:08.670Z,4.83
2023-03-12T09:12:36.420Z,5.25
2023-03-12T09:15:05.342Z,5.33
2023-03-12T09:17:34.522Z,5.43
2023-03-12T09:20:02.277Z,5.54
2023-03-12T09:22:30.489Z,5.21
2023-03-12T09:24:58.301Z,5.86
2023-03-12T09:27:26.150Z,6.16
2023-03-12T09:30:00.560Z,5.54
2023-03-12T09:32:31.341Z,5.51
2023-03-12T09:35:00.545Z,6.06
2023-03-12T09:37:28.359Z,5.55
2023-03-12T09:39:56.286Z,5.80
2023-03-12T09:42:25.999Z,6.17
2023-03-12T09:44:56.011Z,5.99
2023-03-12T09:47:29.735Z,6.01
2023-03-12T09:50:05.711Z,6.18
2023-03-12T09:52:37.028Z,6.20
2023-03-12T09:55:12.494Z,5.97
2023-03-12T09:57:40.349Z,6.16
2023-03-12T10:00:13.699Z,5.80
2023-03-12T10:02:53.660Z,5.98
2023-03-12T10:05:27.558Z,6.10
2023-03-12T10:08:10.522Z,5.99
2023-03-12T10:10:54.947Z,5.92
2023-03-12T10:13:55.808Z,5.94
2023-03-12T10:16:37.547Z,6.33
2023-03-12T10:19:20.257Z,6.38
2023-03-12T10:21:56.825Z,6.56
2023-03-12T10:24:37.427Z,6.01
2023-03-12T10:27:12.830Z,6.54
2023-03-12T10:29:44.786Z,6.68
2023-03-12T10:32:18.733Z,6.29
2023-03-12T10:34:50.014Z,6.55
2023-03-12T10:37:23.981Z,6.28
2023-03-12T10:39:54.049Z,6.40
2023-03-12T10:42:24.200Z,6.43
2023-03-12T10:44:56.089Z,9.51
2023-03-12T10:47:34.754Z,7.01
2023-03-12T10:50:15.647Z,6.78
2023-03-12T10:52:46.121Z,6.46
2023-03-12T10:55:22.409Z,6.53
2023-03-12T10:57:51.482Z,6.97
2023-03-12T11:00:22.027Z,6.81
2023-03-12T11:03:00.122Z,7.17
2023-03-12T11:05:31.214Z,6.84
2023-03-12T11:08:01.971Z,7.08
2023-03-12T11:10:43.141Z,7.26
2023-03-12T11:13:26.370Z,7.27
2023-03-12T11:15:55.066Z,7.10
2023-03-12T11:18:30.370Z,6.89
2023-03-12T11:21:12.683Z,7.32
2023-03-12T11:23:43.880Z,7.25
2023-03-12T11:26:16.893Z,7.78
2023-03-12T11:28:47.490Z,7.70
2023-03-12T11:31:23.117Z,7.31
2023-03-12T11:33:53.158Z,7.04
2023-03-12T11:36:32.487Z,7.43
2023-03-12T11:39:06.723Z,7.58
2023-03-12T11:41:53.148Z,7.12
2023-03-12T11:44:28.946Z,7.98
2023-03-12T11:47:10.692Z,7.90
2023-03-12T11:49:58.164Z,7.68
2023-03-12T11:52:38.678Z,8.21
2023-03-12T11:55:31.723Z,7.62
2023-03-12T11:58:18.409Z,7.75
2023-03-12T12:00:52.810Z,7.93
2023-03-12T12:03:36.028Z,8.24
2023-03-12T12:06:08.648Z,7.99
2023-03-12T12:08:54.118Z,7.93
2023-03-12T12:11:29.175Z,8.31
2023-03-12T12:14:13.467Z,8.44
2023-03-12T12:16:55.699Z,8.61
2023-03-12T12:19:37.608Z,8.63
2023-03-12T12:22:24.165Z,8.67
2023-03-12T12:25:13.598Z,8.64
2023-03-12T12:27:50.379Z,8.21
2023-03-12T12:30:28.587Z,8.83
2023-03-12T12:33:15.535Z,9.23
2023-03-12T12:35:44.351Z,8.88
2023-03-12T12:38:17.522Z,9.16
2023-03-12T12:40:50.231Z,9.50
2023-03-12T12:43:29.254Z,9.01
2023-03-12T12:46:01.356Z,9.31
2023-03-12T12:48:34.945Z,9.10
2023-03-12T12:51:05.220Z,8.86
2023-03-12T12:53:41.901Z,8.90
2023-03-12T12:56:16.405Z,9.24
2023-03-12T12:59:03.992Z,9.35
2023-03-12T13:01:33.408Z,9.20
2023-03-12T13:04:06.955Z,9.46
2023-03-12T13:06:59.669Z,9.98
2023-03-12T13:09:40.136Z,9.76
2023-03-12T13:12:14.260Z,9.69
2023-03-12T13:14:45.112Z,9.63
2023-03-12T13:17:26.545Z,9.43
2023-03-12T13:20:01.695Z,9.62
2023-03-12T13:22:57.170Z,9.61
2023-03-12T13:25:42.857Z,9.64
2023-03-12T13:28:32.679Z,9.93
2023-03-12T13:31:02.529Z,9.98
2023-03-12T13:33:45.456Z,10.31
2023-03-12T13:36:24.526Z,10.63
2023-03-12T13:38:58.791Z,10.97
2023-03-12T13:41:36.422Z,10.89
2023-03-12T13:44:37.815Z,10.60
2023-03-12T13:47:22.981Z,11.48
2023-03-12T13:49:56.175Z,11.50
2023-03-12T13:52:26.104Z,11.22
2023-03-12T13:55:02.956Z,11.07
2023-03-12T13:57:38.919Z,10.84
2023-03-12T14:00:16.328Z,10.95
2023-03-12T14:02:50.760Z,11.38
2023-03-12T14:05:21.445Z,10.74
2023-03-12T14:08:11.858Z,11.82
2023-03-12T14:10:50.954Z,13.05
2023-03-12T14:13:32.964Z,12.62
2023-03-12T14:16:06.973Z,11.81
2023-03-12T14:18:38.394Z,11.04
2023-03-12T14:21:10.379Z,11.41
2023-03-12T14:23:41.825Z,11.58
2023-03-12T14:26:18.402Z,11.73
2023-03-12T14:28:48.063Z,11.91
2023-03-12T14:31:22.758Z,12.01
2023-03-12T14:33:57.062Z,11.60
2023-03-12T14:36:28.027Z,11.97
2023-03-12T14:39:01.914Z,12.49
2023-03-12T14:41:33.428Z,11.60
2023-03-12T14:44:06.740Z,11.67
2023-03-12T14:46:34.752Z,11.56
2023-03-12T14:49:04.313Z,12.09
2023-03-12T14:51:37.208Z,11.30
2023-03-12T14:54:05.196Z,12.15
2023-03-12T14:56:35.254Z,12.78
2023-03-12T14:59:21.169Z,12.38
2023-03-12T15:01:49.164Z,12.22
2023-03-12T15:04:21.598Z,12.15
2023-03-12T15:06:51.607Z,12.06
2023-03-12T15:09:22.034Z,12.20
2023-03-12T15:11:55.479Z,12.18
2023-03-12T15:14:24.857Z,12.31
2023-03-12T15:16:53.930Z,12.22
2023-03-12T15:19:27.415Z,11.89
2023-03-12T15:21:55.683Z,12.17
2023-03-12T15:24:23.924Z,11.50
2023-03-12T15:26:51.752Z,11.15
2023-03-12T15:29:27.199Z,11.30
2023-03-12T15:31:56.943Z,11.60
2023-03-12T15:34:33.072Z,11.82
2023-03-12T15:37:02.826Z,12.12
2023-03-12T15:39:32.991Z,12.01
2023-03-12T15:42:09.720Z,12.07
2023-03-12T15:44:45.669Z,11.81
2023-03-12T15:47:16.186Z,11.42
2023-03-12T15:49:52.881Z,11.34
2023-03-12T15:52:32.450Z,11.15
2023-03-12T15:55:03.028Z,11.47
2023-03-12T15:57:31.894Z,11.10
2023-03-12T16:00:25.409Z,11.37
2023-03-12T16:02:58.473Z,11.65
2023-03-12T16:05:30.788Z,11.26
2023-03-12T16:08:00.975Z,11.36
2023-03-12T16:10:29.592Z,11.37
2023-03-12T16:13:03.760Z,11.48
2023-03-12T16:15:34.288Z,11.38
2023-03-12T16:18:02.147Z,11.58
2023-03-12T16:20:31.559Z,11.62
2023-03-12T16:22:59.293Z,12.08
2023-03-12T16:25:27.827Z,11.39
2023-03-12T16:27:58.223Z,11.69
2023-03-12T16:30:29.062Z,11.71
2023-03-12T16:32:58.180Z,11.56
2023-03-12T16:35:27.623Z,11.35
2023-03-12T16:37:56.974Z,11.39
2023-03-12T16:40:33.346Z,11.43
2023-03-12T16:43:02.716Z,11.97
2023-03-12T16:45:31.989Z,11.86
2023-03-12T16:48:01.592Z,11.53
2023-03-12T16:50:29.463Z,11.76
2023-03-12T16:52:59.786Z,11.87
2023-03-12T16:55:30.679Z,11.38
2023-03-12T16:58:01.671Z,11.82
2023-03-12T17:00:31.822Z,11.71
2023-03-12T17:02:59.782Z,11.81
2023-03-12T17:05:29.001Z,11.50
2023-03-12T17:07:59.418Z,11.73
2023-03-12T17:10:27.578Z,10.97
2023-03-12T17:12:56.783Z,11.17
2023-03-12T17:15:26.894Z,11.37
2023-03-12T17:17:55.951Z,12.56
2023-03-12T17:20:25.084Z,12.25
2023-03-12T17:22:53.101Z,12.08
2023-03-12T17:25:25.999Z,11.71
2023-03-12T17:27:53.915Z,11.41
2023-03-12T17:30:22.074Z,11.37
2023-03-12T17:32:50.851Z,11.04
2023-03-12T17:35:19.228Z,11.16
2023-03-12T17:37:48.428Z,11.13
2023-03-12T17:40:16.897Z,10.86
2023-03-12T17:42:46.157Z,11.09
2023-03-12T17:45:14.024Z,11.43
2023-03-12T17:47:41.772Z,12.05
2023-03-12T17:50:10.902Z,11.48
2023-03-12T17:52:38.881Z,11.31
2023-03-12T17:55:11.080Z,11.52
2023-03-12T17:57:39.899Z,11.63
2023-03-12T18:00:12.935Z,11.27
2023-03-12T18:02:41.940Z,11.38
2023-03-12T18:05:11.334Z,11.35
2023-03-12T18:07:39.666Z,11.08
2023-03-12T18:10:11.029Z,11.25
2023-03-12T18:12:40.139Z,11.13
2023-03-12T18:15:12.509Z,11.16
2023-03-12T18:17:40.710Z,11.23
2023-03-12T18:20:13.369Z,11.14
2023-03-12T18:22:41.554Z,11.08
2023-03-12T18:25:10.398Z,11.00
2023-03-12T18:27:38.176Z,11.28
2023-03-12T18:30:08.215Z,10.56
2023-03-12T18:32:37.463Z,10.77
2023-03-12T18:35:06.315Z,10.95
2023-03-12T18:37:34.433Z,10.56
2023-03-12T18:40:02.327Z,10.59
2023-03-12T18:42:30.448Z,10.90
2023-03-12T18:44:58.158Z,10.95
2023-03-12T18:47:26.017Z,11.10
2023-03-12T18:49:55.872Z,10.75
2023-03-12T18:52:24.081Z,11.08
2023-03-12T18:54:51.927Z,10.66
2023-03-12T18:57:19.706Z,10.73
2023-03-12T18:59:47.477Z,10.46
2023-03-12T19:02:15.498Z,11.04
2023-03-12T19:04:43.410Z,10.91
2023-03-12T19:07:12.589Z,11.13
2023-03-12T19:09:40.354Z,10.96
2023-03-12T19:12:08.378Z,11.23
2023-03-12T19:14:36.177Z,11.38
2023-03-12T19:17:04.043Z,10.98
2023-03-12T19:19:31.803Z,10.85
2023-03-12T19:21:59.551Z,10.99
2023-03-12T19:24:28.749Z,10.72
2023-03-12T19:26:56.880Z,10.87
2023-03-12T19:29:24.666Z,10.81
2023-03-12T19:31:52.561Z,10.57
2023-03-12T19:34:21.914Z,10.70
2023-03-12T19:36:49.775Z,10.76
2023-03-12T19:39:21.694Z,10.87
2023-03-12T19:41:54.438Z,10.61
2023-03-12T19:44:22.287Z,10.73
2023-03-12T19:46:50.056Z,10.68
2023-03-12T19:49:17.811Z,10.47
2023-03-12T19:51:45.573Z,10.78
2023-03-12T19:54:13.306Z,10.91
2023-03-12T19:56:41.350Z,10.69
2023-03-12T19:59:10.598Z,10.83
2023-03-12T20:01:40.918Z,10.83
2023-03-12T20:04:08.807Z,11.01
2023-03-12T20:06:36.647Z,11.07
2023-03-12T20:09:05.314Z,11.29
2023-03-12T20:11:33.511Z,10.93
2023-03-12T20:14:01.334Z,10.80
2023-03-12T20:16:30.493Z,11.13
2023-03-12T20:18:58.490Z,11.30
2023-03-12T20:21:27.290Z,11.13
2023-03-12T20:23:56.502Z,10.87
2023-03-12T20:26:24.334Z,11.20
2023-03-12T20:28:52.203Z,11.20
2023-03-12T20:31:20.343Z,10.99
2023-03-12T20:33:49.560Z,10.79
2023-03-12T20:36:17.325Z,11.07
2023-03-12T20:38:45.326Z,11.28
2023-03-12T20:41:14.411Z,11.38
2023-03-12T20:43:42.629Z,11.17
2023-03-12T20:46:10.889Z,11.22
2023-03-12T20:48:38.846Z,11.46
2023-03-12T20:51:08.151Z,10.87
2023-03-12T20:53:36.048Z,11.42
2023-03-12T20:56:06.547Z,11.00
2023-03-12T20:58:34.937Z,10.93
2023-03-12T21:01:03.387Z,10.76
2023-03-12T21:03:31.331Z,11.22
2023-03-12T21:06:00.798Z,11.50
2023-03-12T21:08:31.089Z,11.53
2023-03-12T21:10:58.847Z,10.89
2023-03-12T21:13:27.403Z,10.93
2023-03-12T21:15:55.165Z,10.97
2023-03-12T21:18:23.831Z,11.00
2023-03-12T21:20:52.181Z,11.00
2023-03-12T21:23:20.123Z,11.34
2023-03-12T21:25:49.395Z,11.33
2023-03-12T21:28:18.185Z,11.32
2023-03-12T21:30:46.105Z,11.47
2023-03-12T21:33:13.993Z,11.18
2023-03-12T21:35:44.566Z,11.11
2023-03-12T21:38:12.523Z,11.07
2023-03-12T21:40:40.406Z,10.90
2023-03-12T21:43:09.670Z,10.69
2023-03-12T21:45:37.479Z,11.02
2023-03-12T21:48:05.763Z,10.86
2023-03-12T21:50:33.551Z,10.67
2023-03-12T21:53:02.428Z,10.73
2023-03-12T21:55:31.417Z,10.71
2023-03-12T21:57:59.188Z,10.64
2023-03-12T22:00:28.423Z,10.87
2023-03-12T22:02:56.185Z,11.09
2023-03-12T22:05:24.325Z,10.45
2023-03-12T22:07:52.173Z,11.25
2023-03-12T22:10:20.127Z,11.16
2023-03-12T22:12:47.921Z,10.71
2023-03-12T22:15:17.091Z,11.00
2023-03-12T22:17:46.221Z,10.68
2023-03-12T22:20:14.307Z,11.14
2023-03-12T22:22:42.079Z,10.99
2023-03-12T22:25:10.455Z,11.08
2023-03-12T22:27:38.249Z,11.03
2023-03-12T22:30:07.221Z,11.17
2023-03-12T22:32:35.134Z,11.49
2023-03-12T22:35:04.564Z,10.46
2023-03-12T22:37:32.394Z,10.97
2023-03-12T22:40:06.738Z,10.85
2023-03-12T22:42:34.714Z,11.51
2023-03-12T22:45:02.502Z,11.13
2023-03-12T22:47:30.454Z,10.25
2023-03-12T22:49:58.466Z,10.57
2023-03-12T22:52:27.594Z,10.26
2023-03-12T22:54:55.315Z,10.55
2023-03-12T22:57:23.164Z,10.71
2023-03-12T22:59:50.859Z,10.75
2023-03-12T23:02:18.802Z,10.71
2023-03-12T23:04:46.566Z,10.93
2023-03-12T23:07:17.377Z,10.92
2023-03-12T23:09:48.278Z,10.54
2023-03-12T23:12:16.079Z,10.49
2023-03-12T23:14:43.858Z,10.37
2023-03-12T23:17:11.761Z,12.16
2023-03-12T23:19:39.671Z,11.32
2023-03-12T23:22:08.140Z,10.45
2023-03-12T23:24:35.934Z,11.34
2023-03-12T23:27:06.146Z,10.69
2023-03-12T23:29:34.876Z,10.43
2023-03-12T23:32:03.049Z,10.39
2023-03-12T23:34:30.843Z,10.00
2023-03-12T23:36:58.827Z,10.68
2023-03-12T23:39:26.594Z,10.28
2023-03-12T23:41:56.247Z,10.45
2023-03-12T23:44:25.613Z,10.35
2023-03-12T23:46:53.345Z,10.34
2023-03-12T23:49:21.114Z,10.78
2023-03-12T23:51:48.834Z,10.52
2023-03-12T23:54:16.585Z,10.45
2023-03-12T23:56:44.372Z,10.54
2023-03-12T23:59:12.121Z,10.65
